^^

Nearby METAR Reports


EGAC - Belfast Harbour, United Kingdom
Distance from station: W 8mi, 13km
Updated: 01/12/2022 10:20
Overcast
Overcast
space Wind from SSW
Wind: SSW 5 mph , 7 km/h
Temperature: 11°C
Dew Point: 9°C
Humidity: 88%
Barometer: 1026 hPa
Clouds: Overcast
Visibility: 6 miles , 10 km
Cloud details: Overcast 823 m
2022/12/01 10:20 EGAC 011020Z AUTO 20004KT 9999 OVC027 11/09 Q1026
EGAA - Belfast/Aldergro, United Kingdom
Distance from station: W 22mi, 35km
Updated: 01/12/2022 10:20
Overcast
Overcast
space Wind from SSW
Wind: SSW 8 mph , 13 km/h
Temperature: 10°C
Wind Chill: 8°C
Dew Point: 8°C
Humidity: 88%
Barometer: 1026 hPa
Clouds: Overcast
Visibility: 6 miles , 10 km
Cloud details: Overcast 671 m
2022/12/01 10:20 EGAA 011020Z AUTO 20007KT 9999 OVC022 10/08 Q1026
 
EGNS - Isle Of Man/Rona, United Kingdom
Distance from station: SE 57mi, 91km
Updated: 01/12/2022 10:20
Mostly cloudy
Mostly cloudy
space Wind from S
Wind: S 13 mph , 20 km/h
Temperature: 11°C
Dew Point: 10°C
Humidity: 94%
Barometer: 1027 hPa
Clouds: Mostly cloudy
Visibility: 6 miles , 10 km
Cloud details: Few Clouds 213 m
Mostly cloudy 853 m
2022/12/01 10:20 EGNS 011020Z 19011KT 9999 FEW007 BKN028 11/10 Q1027 NOSIG
EGPK - Prestwick(Civ/Na, United Kingdom
Distance from station: NE 74mi, 119km
Updated: 01/12/2022 10:20
Mostly cloudy
Mostly cloudy
space Wind from SSE
Wind: SSE 9 mph , 15 km/h
Temperature: 8°C
Wind Chill: 5°C
Dew Point: 7°C
Humidity: 93%
Barometer: 1026 hPa
Clouds: Mostly cloudy
Visibility: 6 miles , 10 km
Cloud details: Few Clouds 396 m
Mostly cloudy 701 m
2022/12/01 10:20 EGPK 011020Z 15008KT 9999 FEW013 BKN023 08/07 Q1026
 
EIDW - Dublin Airport, Ireland
Distance from station: SSW 87mi, 141km
Updated: 01/12/2022 10:30
Mostly cloudy
Mostly cloudy
space Wind from SSW
Wind: SSW 5 mph , 7 km/h
Temperature: 10°C
Wind Chill: 9°C
Dew Point: 5°C
Humidity: 71%
Barometer: 1027 hPa
Clouds: Mostly cloudy
Visibility: 6 miles , 10 km
Cloud details: Few Clouds 457 m
Mostly cloudy 1372 m
2022/12/01 10:30 EIDW 011030Z 20004KT 170V230 9999 FEW015 BKN045 10/05 Q1027 NOSIG
EGPF - Glasgow Airport, United Kingdom
Distance from station: NNE 98mi, 158km
Updated: 01/12/2022 10:20
Mist, Overcast
Mist, Overcast
space Wind from ENE
Wind: ENE 3 mph , 6 km/h
Temperature: 6°C
Dew Point: 6°C
Humidity: 100%
Barometer: 1027 hPa
Summary: Mist
Clouds: Overcast
Visibility: 1 mile , 2 km
Cloud details: Mostly cloudy 91 m
Overcast 335 m
2022/12/01 10:20 EGPF 011020Z AUTO 06003KT 040V100 2300 BR BKN003 OVC011 06/06 Q1027